Time;durP1;ratioP1;P1;durP2;ratioP2;P2;SDS_P1;SDS_P2;PMS_P1;PMS_P2;Temp;Humidity;BMP_temperature;BMP_pressure;BME280_temperature;BME280_humidity;BME280_pressure;Samples;Min_cycle;Max_cycle;Signal;HPM_P1;HPM_P2
2023/11/26 00:00:10;;;;;;;6.82;3.53;;;4.10;96.70;;;;;;4849098;29;20054;-64
2023/11/26 00:02:42;;;;;;;4.93;3.10;;;4.10;96.70;;;;;;4839549;29;20074;-65
2023/11/26 00:05:14;;;;;;;3.83;2.15;;;4.00;96.70;;;;;;4839901;29;20045;-64
2023/11/26 00:07:42;;;;;;;4.30;2.42;;;3.90;96.70;;;;;;4844985;29;20049;-64
2023/11/26 00:10:11;;;;;;;4.40;2.30;;;3.90;96.70;;;;;;4838766;29;20038;-65
2023/11/26 00:12:39;;;;;;;4.75;2.63;;;3.90;96.70;;;;;;4846098;29;20051;-65
2023/11/26 00:15:11;;;;;;;6.57;3.30;;;3.90;96.70;;;;;;4853641;29;20472;-65
2023/11/26 00:17:40;;;;;;;5.07;2.80;;;3.90;96.70;;;;;;4848297;29;20506;-65
2023/11/26 00:20:09;;;;;;;5.38;2.30;;;3.90;96.70;;;;;;4837467;29;20411;-64
2023/11/26 00:22:38;;;;;;;4.10;2.05;;;3.90;96.70;;;;;;4851155;29;20133;-65
2023/11/26 00:25:06;;;;;;;4.03;1.98;;;3.80;96.70;;;;;;4844689;29;20053;-64
2023/11/26 00:27:35;;;;;;;3.95;1.80;;;3.80;96.70;;;;;;4848082;29;20518;-65
2023/11/26 00:30:05;;;;;;;5.35;2.45;;;3.90;96.70;;;;;;4828435;29;20125;-65
2023/11/26 00:32:35;;;;;;;5.00;2.60;;;3.90;96.70;;;;;;4837293;29;20081;-65
2023/11/26 00:35:04;;;;;;;5.50;2.40;;;3.90;96.70;;;;;;4848756;29;20069;-65
2023/11/26 00:37:33;;;;;;;6.97;3.00;;;3.90;96.70;;;;;;4839257;29;20521;-65
2023/11/26 00:40:01;;;;;;;6.90;3.42;;;4.00;96.70;;;;;;4837712;29;20054;-65
2023/11/26 00:42:29;;;;;;;4.90;2.40;;;4.00;96.70;;;;;;4844300;29;20065;-65
2023/11/26 00:44:57;;;;;;;5.53;2.85;;;3.90;96.70;;;;;;4837486;29;20045;-65
2023/11/26 00:47:25;;;;;;;4.40;2.50;;;3.80;96.70;;;;;;4845517;29;20098;-66
2023/11/26 00:50:01;;;;;;;3.45;2.17;;;3.80;96.70;;;;;;4829049;29;20064;-66
2023/11/26 00:52:32;;;;;;;4.60;2.50;;;3.70;96.70;;;;;;4836728;29;20054;-65
2023/11/26 00:55:00;;;;;;;5.07;2.92;;;3.60;96.70;;;;;;4836692;29;20498;-65
2023/11/26 00:57:29;;;;;;;5.63;3.33;;;3.60;96.70;;;;;;4851697;29;20045;-65
2023/11/26 00:59:57;;;;;;;5.13;2.65;;;3.60;96.70;;;;;;4831851;29;20057;-65
2023/11/26 01:02:29;;;;;;;4.03;2.08;;;3.60;96.70;;;;;;4825770;29;20089;-65
2023/11/26 01:04:59;;;;;;;4.63;2.00;;;3.40;96.70;;;;;;4831494;29;20067;-65
2023/11/26 01:07:30;;;;;;;4.45;1.60;;;3.40;96.70;;;;;;4846049;29;20052;-65
2023/11/26 01:09:58;;;;;;;3.17;1.63;;;3.50;96.70;;;;;;4838652;29;20049;-64
2023/11/26 01:12:27;;;;;;;3.20;1.75;;;3.50;96.70;;;;;;4841435;29;20046;-65
2023/11/26 01:14:56;;;;;;;4.15;1.80;;;3.50;96.70;;;;;;4837425;29;20050;-65
2023/11/26 01:17:25;;;;;;;2.90;1.65;;;3.40;96.70;;;;;;4855671;29;20054;-65
2023/11/26 01:19:53;;;;;;;3.38;1.75;;;3.40;96.70;;;;;;4842807;29;20137;-65
2023/11/26 01:22:24;;;;;;;3.65;1.80;;;3.40;96.70;;;;;;4842126;29;20069;-64
2023/11/26 01:24:52;;;;;;;3.30;1.73;;;3.40;96.70;;;;;;4845031;29;20630;-65
2023/11/26 01:27:20;;;;;;;3.50;1.73;;;3.40;96.70;;;;;;4832498;29;20110;-65
2023/11/26 01:29:49;;;;;;;2.60;1.30;;;3.30;96.70;;;;;;4853935;29;20125;-64
2023/11/26 01:32:17;;;;;;;2.92;1.30;;;3.40;96.70;;;;;;4843698;29;20077;-65
2023/11/26 01:34:45;;;;;;;2.95;1.60;;;3.40;96.70;;;;;;4824114;29;20952;-65
2023/11/26 01:37:13;;;;;;;3.35;1.42;;;3.30;96.70;;;;;;4843257;29;20090;-65
2023/11/26 01:39:44;;;;;;;3.63;1.42;;;3.30;96.70;;;;;;4839673;29;20129;-65
2023/11/26 01:42:13;;;;;;;2.97;1.60;;;3.20;96.70;;;;;;4840176;29;20045;-64
2023/11/26 01:44:41;;;;;;;2.63;1.73;;;3.10;96.70;;;;;;4845630;29;20030;-64
2023/11/26 01:47:10;;;;;;;3.25;1.83;;;3.10;96.70;;;;;;4840748;29;20447;-65
2023/11/26 01:49:39;;;;;;;2.72;1.50;;;3.10;96.70;;;;;;4840000;29;20049;-65
2023/11/26 01:52:12;;;;;;;2.83;1.70;;;3.10;96.70;;;;;;4845854;29;20034;-65
2023/11/26 01:54:43;;;;;;;2.50;1.50;;;2.90;96.70;;;;;;4831724;29;20046;-64
2023/11/26 01:57:14;;;;;;;4.38;1.55;;;2.90;96.70;;;;;;4847878;29;20575;-64
2023/11/26 01:59:43;;;;;;;3.55;1.58;;;2.90;96.70;;;;;;4841468;29;20124;-65
2023/11/26 02:02:11;;;;;;;2.70;1.35;;;3.00;96.70;;;;;;4839876;29;20085;-64
2023/11/26 02:04:39;;;;;;;4.43;2.22;;;3.20;96.70;;;;;;4828862;29;20045;-65
2023/11/26 02:07:09;;;;;;;4.53;2.42;;;3.20;96.70;;;;;;4843399;29;20042;-64
2023/11/26 02:09:37;;;;;;;3.42;1.88;;;3.20;96.70;;;;;;4830569;29;20507;-64
2023/11/26 02:12:10;;;;;;;5.10;2.45;;;3.40;96.70;;;;;;4846514;29;20049;-65
2023/11/26 02:14:38;;;;;;;4.43;2.17;;;3.40;96.70;;;;;;4825714;29;20063;-64
2023/11/26 02:17:07;;;;;;;4.65;2.55;;;3.30;96.70;;;;;;4826097;29;20106;-65
2023/11/26 02:19:38;;;;;;;6.03;3.05;;;3.10;96.70;;;;;;4826127;29;20058;-61
2023/11/26 02:22:08;;;;;;;5.60;3.28;;;3.10;96.70;;;;;;4839060;29;20483;-61
2023/11/26 02:24:41;;;;;;;5.78;3.17;;;3.00;96.70;;;;;;4838515;29;20867;-60
2023/11/26 02:27:09;;;;;;;5.70;3.17;;;3.00;96.70;;;;;;4841361;29;20058;-61
2023/11/26 02:29:41;;;;;;;5.22;2.80;;;3.00;96.70;;;;;;4825442;29;20046;-61
2023/11/26 02:32:10;;;;;;;4.82;3.03;;;2.90;96.70;;;;;;4831520;29;20141;-60
2023/11/26 02:34:40;;;;;;;4.72;3.20;;;2.90;96.70;;;;;;4838385;29;20050;-60
2023/11/26 02:37:09;;;;;;;5.88;3.17;;;2.90;96.70;;;;;;4863976;29;20137;-61
2023/11/26 02:39:39;;;;;;;6.72;2.72;;;2.90;96.70;;;;;;4839819;29;20053;-61
2023/11/26 02:42:07;;;;;;;5.95;2.90;;;2.90;96.70;;;;;;4841218;29;20093;-61
2023/11/26 02:44:36;;;;;;;8.73;3.45;;;2.90;96.70;;;;;;4821636;29;20145;-60
2023/11/26 02:47:04;;;;;;;8.82;3.92;;;3.00;96.70;;;;;;4841429;29;20102;-61
2023/11/26 02:49:33;;;;;;;6.05;2.95;;;3.00;96.70;;;;;;4838028;29;20049;-62
2023/11/26 02:52:01;;;;;;;4.63;2.83;;;2.90;96.70;;;;;;4839448;29;20752;-61
2023/11/26 02:54:30;;;;;;;4.07;2.55;;;2.90;96.70;;;;;;4824193;29;20133;-60
2023/11/26 02:57:00;;;;;;;6.63;3.70;;;2.90;96.70;;;;;;4844701;29;20049;-60
2023/11/26 02:59:28;;;;;;;7.15;2.97;;;2.90;96.70;;;;;;4844306;29;20128;-61
2023/11/26 03:02:00;;;;;;;4.90;3.10;;;2.80;96.70;;;;;;4837198;29;20176;-62
2023/11/26 03:04:28;;;;;;;6.25;3.00;;;2.70;96.70;;;;;;4845810;29;20050;-60
2023/11/26 03:06:58;;;;;;;5.07;2.72;;;2.70;96.70;;;;;;4843054;29;20056;-61
2023/11/26 03:14:53;;;;;;;5.93;2.88;;;2.70;96.70;;;;;;4839076;29;20049;-60
2023/11/26 03:17:22;;;;;;;6.07;3.08;;;2.60;96.70;;;;;;4844514;29;20065;-60
2023/11/26 03:19:51;;;;;;;5.55;2.60;;;2.60;96.70;;;;;;4825388;29;20038;-60
2023/11/26 03:22:19;;;;;;;5.88;2.85;;;2.70;96.70;;;;;;4825091;29;20116;-60
2023/11/26 03:24:47;;;;;;;5.25;2.63;;;2.50;96.70;;;;;;4837402;29;20048;-60
2023/11/26 03:27:18;;;;;;;4.47;2.78;;;2.40;96.70;;;;;;4846763;29;20069;-60
2023/11/26 03:29:47;;;;;;;5.05;3.03;;;2.30;96.70;;;;;;4826136;29;20050;-60
2023/11/26 03:32:16;;;;;;;6.00;2.20;;;2.30;96.70;;;;;;4839416;29;20133;-61
2023/11/26 03:34:46;;;;;;;4.70;2.65;;;2.40;96.70;;;;;;4828695;29;20068;-61
2023/11/26 03:37:15;;;;;;;4.05;2.47;;;2.30;96.70;;;;;;4843241;29;20050;-60
2023/11/26 03:39:45;;;;;;;4.63;2.45;;;2.40;96.70;;;;;;4844041;29;20061;-60
2023/11/26 03:42:16;;;;;;;4.68;2.58;;;2.40;96.70;;;;;;4842810;29;20045;-60
2023/11/26 03:44:56;;;;;;;5.00;1.90;;;2.40;96.70;;;;;;4855771;29;20494;-60
2023/11/26 03:47:24;;;;;;;2.90;1.67;;;2.30;96.70;;;;;;4856684;29;20052;-61
2023/11/26 03:49:53;;;;;;;4.25;1.95;;;2.30;96.70;;;;;;4849836;29;20053;-60
2023/11/26 03:52:23;;;;;;;3.35;2.13;;;2.20;96.70;;;;;;4854353;29;20056;-60
2023/11/26 03:54:51;;;;;;;2.63;1.60;;;2.30;96.70;;;;;;4879553;29;20429;-60
2023/11/26 03:57:21;;;;;;;3.63;1.75;;;2.30;96.70;;;;;;4855199;29;20045;-60
2023/11/26 03:59:50;;;;;;;3.20;1.73;;;2.30;96.70;;;;;;4854727;29;20089;-61
2023/11/26 04:02:19;;;;;;;3.03;1.80;;;2.40;96.70;;;;;;4855312;29;20037;-60
2023/11/26 04:04:47;;;;;;;3.20;1.90;;;2.40;96.70;;;;;;4859500;29;20055;-60
2023/11/26 04:07:16;;;;;;;3.47;1.77;;;2.40;96.70;;;;;;4864283;29;20045;-61
2023/11/26 04:09:45;;;;;;;2.70;1.58;;;2.40;96.70;;;;;;4847972;29;20056;-60
2023/11/26 04:12:21;;;;;;;2.55;1.65;;;2.30;96.70;;;;;;4868617;29;20048;-61
2023/11/26 04:14:54;;;;;;;3.60;1.75;;;2.20;96.70;;;;;;4861337;29;20477;-60
2023/11/26 04:17:23;;;;;;;2.95;1.40;;;2.40;96.70;;;;;;4860039;29;20064;-61
2023/11/26 04:19:52;;;;;;;2.70;1.75;;;2.30;96.70;;;;;;4859795;29;20053;-60
2023/11/26 04:22:22;;;;;;;2.55;1.38;;;2.40;96.70;;;;;;4855081;29;20065;-60
2023/11/26 04:24:51;;;;;;;2.55;1.42;;;2.40;96.70;;;;;;4862769;29;20072;-60
2023/11/26 04:27:21;;;;;;;3.45;1.75;;;2.40;96.70;;;;;;4863755;29;20061;-60
2023/11/26 04:29:50;;;;;;;3.00;1.60;;;2.30;96.70;;;;;;4855187;29;20128;-60
2023/11/26 04:32:19;;;;;;;3.75;1.88;;;2.20;96.70;;;;;;4854955;29;20121;-61
2023/11/26 04:34:48;;;;;;;4.32;1.85;;;2.20;96.70;;;;;;4861871;29;20049;-60
2023/11/26 04:37:17;;;;;;;2.88;1.60;;;2.20;96.70;;;;;;4861117;29;20605;-60
2023/11/26 04:39:48;;;;;;;3.72;2.20;;;2.30;96.70;;;;;;4847653;29;20581;-60
2023/11/26 04:42:17;;;;;;;4.15;2.10;;;2.30;96.70;;;;;;4853603;29;20539;-60
2023/11/26 04:44:47;;;;;;;3.17;1.65;;;2.40;96.70;;;;;;4838746;29;20117;-61
2023/11/26 04:47:15;;;;;;;8.32;2.00;;;2.40;96.70;;;;;;4843949;29;20045;-60
2023/11/26 04:49:44;;;;;;;3.90;2.17;;;2.40;96.70;;;;;;4847584;29;20041;-61
2023/11/26 04:52:12;;;;;;;3.47;1.65;;;2.30;96.70;;;;;;4837210;29;20049;-61
2023/11/26 04:54:41;;;;;;;3.22;1.77;;;2.20;96.70;;;;;;4843784;29;20141;-60
2023/11/26 04:57:10;;;;;;;3.33;1.70;;;2.20;96.70;;;;;;4840024;29;20046;-60
2023/11/26 04:59:39;;;;;;;3.35;1.55;;;2.30;96.70;;;;;;4854053;29;20045;-62
2023/11/26 05:02:10;;;;;;;4.10;1.58;;;2.30;96.70;;;;;;4843470;29;20069;-61
2023/11/26 05:04:39;;;;;;;3.42;1.73;;;2.20;96.70;;;;;;4838429;29;20102;-60
2023/11/26 05:07:08;;;;;;;2.67;1.70;;;2.10;96.70;;;;;;4838778;29;20149;-60
2023/11/26 05:09:36;;;;;;;1.77;1.20;;;2.00;96.70;;;;;;4840252;29;20176;-60
2023/11/26 05:12:06;;;;;;;3.75;1.40;;;1.90;96.70;;;;;;4839010;29;20050;-60
2023/11/26 05:14:36;;;;;;;3.88;1.95;;;1.90;96.70;;;;;;4840340;29;20049;-61
2023/11/26 05:17:04;;;;;;;2.92;1.80;;;2.00;96.70;;;;;;4840810;29;20050;-60
2023/11/26 05:19:35;;;;;;;3.67;1.58;;;2.10;96.70;;;;;;4841064;29;20623;-60
2023/11/26 05:22:03;;;;;;;2.65;1.50;;;2.00;96.70;;;;;;4839376;29;20091;-60
2023/11/26 05:24:32;;;;;;;4.18;1.65;;;2.00;96.70;;;;;;4845112;29;20046;-61
2023/11/26 05:27:00;;;;;;;3.08;1.80;;;2.00;96.70;;;;;;4847277;29;20109;-61
2023/11/26 05:29:29;;;;;;;4.20;2.30;;;2.10;96.70;;;;;;4838830;29;20125;-61
2023/11/26 05:31:58;;;;;;;3.17;1.85;;;2.10;96.70;;;;;;4847169;29;20093;-60
2023/11/26 05:34:27;;;;;;;3.70;2.08;;;2.10;96.70;;;;;;4835718;29;20609;-61
2023/11/26 05:36:57;;;;;;;3.10;2.05;;;2.10;96.70;;;;;;4845402;29;20394;-61
2023/11/26 05:39:26;;;;;;;4.60;2.42;;;2.00;96.70;;;;;;4849604;29;20129;-60
2023/11/26 05:41:57;;;;;;;4.22;2.10;;;2.00;96.70;;;;;;4840028;29;20503;-61
2023/11/26 05:44:25;;;;;;;4.57;2.35;;;2.00;96.70;;;;;;4839512;29;20147;-61
2023/11/26 05:46:54;;;;;;;4.65;2.50;;;2.00;96.70;;;;;;4841157;29;20652;-61
2023/11/26 05:49:22;;;;;;;6.82;3.00;;;1.90;96.70;;;;;;4840748;29;20388;-61
2023/11/26 05:51:51;;;;;;;4.35;2.28;;;1.90;96.70;;;;;;4839173;29;20069;-60
2023/11/26 05:54:20;;;;;;;4.68;2.50;;;2.00;96.70;;;;;;4846801;29;20100;-61
2023/11/26 05:56:50;;;;;;;3.22;2.08;;;1.90;96.70;;;;;;4833725;29;20065;-60
2023/11/26 05:59:18;;;;;;;5.32;2.65;;;2.00;96.70;;;;;;4842917;29;20060;-62
2023/11/26 06:01:46;;;;;;;4.97;2.38;;;1.90;96.70;;;;;;4838565;29;20065;-60
2023/11/26 06:04:15;;;;;;;4.03;2.38;;;1.90;96.70;;;;;;4838540;29;20077;-61
2023/11/26 06:06:43;;;;;;;3.95;2.30;;;1.90;96.70;;;;;;4845901;29;20419;-62
2023/11/26 06:09:14;;;;;;;5.22;2.25;;;1.90;96.70;;;;;;4840569;29;20073;-61
2023/11/26 06:11:43;;;;;;;4.28;2.67;;;1.90;96.70;;;;;;4844549;29;20059;-62
2023/11/26 06:14:12;;;;;;;4.93;2.63;;;1.70;96.70;;;;;;4838122;29;20054;-61
2023/11/26 06:16:41;;;;;;;3.72;2.47;;;1.70;96.70;;;;;;4840101;29;20041;-61
2023/11/26 06:19:11;;;;;;;4.20;2.40;;;1.70;96.70;;;;;;4838334;29;20050;-60
2023/11/26 06:21:39;;;;;;;4.38;2.20;;;1.60;96.70;;;;;;4842383;29;20136;-61
2023/11/26 06:24:09;;;;;;;3.85;2.08;;;1.80;96.70;;;;;;4838168;29;20049;-60
2023/11/26 06:26:38;;;;;;;4.97;2.05;;;1.80;96.70;;;;;;4838628;29;20053;-61
2023/11/26 06:29:08;;;;;;;4.22;1.80;;;1.80;96.70;;;;;;4852064;29;20400;-62
2023/11/26 06:31:36;;;;;;;3.78;2.10;;;1.80;96.70;;;;;;4853237;29;20053;-61
2023/11/26 06:34:04;;;;;;;5.88;2.72;;;1.80;96.70;;;;;;4838566;29;20088;-61
2023/11/26 06:36:32;;;;;;;6.75;2.65;;;1.80;96.70;;;;;;4845331;29;20053;-60
2023/11/26 06:39:00;;;;;;;7.07;3.10;;;1.90;96.70;;;;;;4845698;29;20066;-60
2023/11/26 06:41:34;;;;;;;7.25;3.22;;;1.80;96.70;;;;;;4842577;29;20095;-60
2023/11/26 06:44:02;;;;;;;4.82;2.53;;;1.70;96.70;;;;;;4843007;29;20058;-61
2023/11/26 06:46:31;;;;;;;4.53;2.65;;;1.60;96.70;;;;;;4838275;29;20053;-61
2023/11/26 06:49:00;;;;;;;4.97;2.28;;;1.70;96.70;;;;;;4855266;29;20057;-61
2023/11/26 06:51:28;;;;;;;3.92;1.63;;;1.90;96.70;;;;;;4846740;29;20452;-61
2023/11/26 06:53:56;;;;;;;3.28;1.48;;;1.80;96.70;;;;;;4846144;29;20094;-62
2023/11/26 06:56:24;;;;;;;2.45;1.50;;;1.90;96.70;;;;;;4847489;29;20121;-60
2023/11/26 06:58:52;;;;;;;2.58;1.42;;;1.80;96.70;;;;;;4838240;29;20498;-61
2023/11/26 07:01:20;;;;;;;4.13;1.70;;;1.90;96.70;;;;;;4837509;29;20048;-60
2023/11/26 07:03:50;;;;;;;4.25;1.45;;;1.90;96.70;;;;;;4840685;29;20058;-60
2023/11/26 07:06:18;;;;;;;3.53;1.80;;;1.90;96.70;;;;;;4837658;29;20061;-60
2023/11/26 07:08:46;;;;;;;1.95;1.30;;;1.90;96.70;;;;;;4843855;29;20553;-60
2023/11/26 07:11:18;;;;;;;1.92;1.30;;;1.80;96.70;;;;;;4839416;29;20045;-59
2023/11/26 07:13:47;;;;;;;5.15;1.90;;;1.90;96.70;;;;;;4837899;29;20053;-61
2023/11/26 07:16:17;;;;;;;3.20;1.80;;;1.90;96.70;;;;;;4840237;29;20590;-60
2023/11/26 07:18:46;;;;;;;3.15;1.80;;;2.00;96.70;;;;;;4844098;29;20041;-60
2023/11/26 07:21:15;;;;;;;3.33;1.92;;;2.10;96.70;;;;;;4837421;29;20137;-60
2023/11/26 07:23:46;;;;;;;4.10;2.00;;;2.20;96.70;;;;;;4837469;29;20129;-61
2023/11/26 07:26:19;;;;;;;4.07;2.55;;;2.10;96.70;;;;;;4845612;29;20047;-60
2023/11/26 07:28:51;;;;;;;4.43;2.58;;;2.20;96.70;;;;;;4845684;29;20061;-60
2023/11/26 07:31:22;;;;;;;4.32;2.67;;;2.20;96.70;;;;;;4837074;29;20046;-60
2023/11/26 07:33:51;;;;;;;5.13;2.40;;;2.30;96.70;;;;;;4846198;29;20121;-61
2023/11/26 07:36:24;;;;;;;4.63;2.40;;;2.40;96.70;;;;;;4837175;29;20106;-60
2023/11/26 07:38:55;;;;;;;5.80;1.90;;;2.40;96.70;;;;;;4837932;29;20057;-61
2023/11/26 07:41:23;;;;;;;4.47;2.50;;;2.40;96.70;;;;;;4849443;29;20041;-60
2023/11/26 07:43:52;;;;;;;4.85;2.53;;;2.50;96.70;;;;;;4841331;29;20153;-61
2023/11/26 07:46:21;;;;;;;8.23;2.90;;;2.50;96.70;;;;;;4845856;29;20046;-60
2023/11/26 07:48:49;;;;;;;7.43;4.18;;;2.50;96.70;;;;;;4852984;29;20053;-60
2023/11/26 07:51:20;;;;;;;5.75;3.10;;;2.60;96.70;;;;;;4832985;29;20095;-60
2023/11/26 07:53:48;;;;;;;3.80;2.33;;;2.60;96.70;;;;;;4837209;29;20049;-60
2023/11/26 07:56:16;;;;;;;6.63;3.80;;;2.70;96.70;;;;;;4845505;29;20050;-61
2023/11/26 07:58:45;;;;;;;3.50;2.22;;;2.70;96.70;;;;;;4837146;29;20049;-60
2023/11/26 08:01:13;;;;;;;4.57;2.53;;;2.80;96.70;;;;;;4840894;29;20701;-61
2023/11/26 08:03:42;;;;;;;9.18;5.07;;;3.00;96.70;;;;;;4845031;29;20681;-61
2023/11/26 08:06:15;;;;;;;9.32;6.28;;;3.10;96.70;;;;;;4836935;29;20079;-60
2023/11/26 08:08:45;;;;;;;8.40;5.68;;;3.20;96.70;;;;;;4837187;29;20454;-60
2023/11/26 08:11:16;;;;;;;5.97;4.53;;;3.20;96.70;;;;;;4845153;29;20053;-60
2023/11/26 08:13:44;;;;;;;5.70;3.85;;;3.20;96.70;;;;;;4844951;29;20049;-61
2023/11/26 08:16:13;;;;;;;8.63;4.63;;;3.30;96.70;;;;;;4846550;29;20070;-60
2023/11/26 08:18:42;;;;;;;12.75;6.82;;;3.30;96.70;;;;;;4855566;29;20050;-61
2023/11/26 08:21:10;;;;;;;16.52;8.88;;;3.40;96.70;;;;;;4847551;29;20121;-61
2023/11/26 08:23:41;;;;;;;28.52;14.35;;;3.40;96.70;;;;;;4852314;29;20139;-61
2023/11/26 08:26:15;;;;;;;21.52;12.75;;;3.70;96.70;;;;;;4840658;29;20054;-62
2023/11/26 08:28:43;;;;;;;19.45;9.60;;;3.80;96.70;;;;;;4840009;29;20042;-62
2023/11/26 08:31:12;;;;;;;16.00;9.02;;;3.90;96.70;;;;;;4843311;29;20054;-62
2023/11/26 08:33:42;;;;;;;10.43;6.13;;;4.00;96.70;;;;;;4847370;29;20417;-62
2023/11/26 08:36:16;;;;;;;8.75;4.95;;;4.10;96.70;;;;;;4849470;29;20531;-62
2023/11/26 08:38:48;;;;;;;7.82;4.70;;;4.10;96.70;;;;;;4840843;29;20046;-61
2023/11/26 08:41:21;;;;;;;5.88;3.40;;;4.10;96.70;;;;;;4847570;29;20058;-63
2023/11/26 08:43:50;;;;;;;7.15;3.80;;;4.30;96.70;;;;;;4839890;29;20077;-62
2023/11/26 08:46:21;;;;;;;7.93;4.85;;;4.30;96.70;;;;;;4843946;29;20056;-61
2023/11/26 08:48:52;;;;;;;11.98;6.78;;;4.30;96.70;;;;;;4848370;29;20102;-61
2023/11/26 08:51:21;;;;;;;10.70;5.68;;;4.40;96.70;;;;;;4847055;29;20037;-61
2023/11/26 08:53:50;;;;;;;8.32;4.72;;;4.60;96.70;;;;;;4850282;29;20502;-61
2023/11/26 08:56:20;;;;;;;8.45;4.68;;;4.70;96.70;;;;;;4842307;29;20069;-62
2023/11/26 08:58:48;;;;;;;7.28;4.13;;;4.90;96.70;;;;;;4840739;29;20052;-62
2023/11/26 09:01:17;;;;;;;8.35;4.20;;;5.00;96.70;;;;;;4843239;29;20046;-62
2023/11/26 09:03:45;;;;;;;6.47;4.15;;;5.20;96.70;;;;;;4839068;29;20556;-62
2023/11/26 09:06:13;;;;;;;7.18;4.32;;;5.30;96.70;;;;;;4842238;29;21019;-61
2023/11/26 09:08:42;;;;;;;9.02;4.65;;;5.40;96.70;;;;;;4842218;29;20057;-61
2023/11/26 09:11:12;;;;;;;8.35;4.95;;;5.50;96.70;;;;;;4839449;29;20145;-63
2023/11/26 09:13:42;;;;;;;8.57;5.07;;;5.60;96.70;;;;;;4854646;29;20045;-64
2023/11/26 09:16:10;;;;;;;9.27;5.25;;;5.70;96.70;;;;;;4848128;29;20090;-63
2023/11/26 09:18:39;;;;;;;8.27;4.25;;;5.80;96.70;;;;;;4841582;29;20041;-62
2023/11/26 09:21:07;;;;;;;7.10;4.30;;;5.90;96.70;;;;;;4854126;29;20061;-61
2023/11/26 09:23:36;;;;;;;8.70;4.95;;;6.00;96.70;;;;;;4839707;29;20042;-61
2023/11/26 09:26:04;;;;;;;6.05;3.53;;;6.10;96.70;;;;;;4847854;29;20502;-63
2023/11/26 09:28:32;;;;;;;5.30;3.30;;;6.20;96.70;;;;;;4839488;29;20793;-63
2023/11/26 09:31:05;;;;;;;3.40;2.45;;;6.20;96.70;;;;;;4847743;29;20133;-64
2023/11/26 09:33:36;;;;;;;5.05;2.20;;;6.40;96.70;;;;;;4846799;29;20106;-63
2023/11/26 09:36:05;;;;;;;4.55;2.13;;;6.40;96.70;;;;;;4844922;29;20057;-64
2023/11/26 09:38:37;;;;;;;4.45;2.63;;;6.50;96.70;;;;;;4843160;29;20093;-64
2023/11/26 09:41:07;;;;;;;3.72;2.75;;;6.60;96.70;;;;;;4838921;29;20053;-64
2023/11/26 09:43:35;;;;;;;4.20;2.13;;;6.70;96.70;;;;;;4844738;29;20076;-64
2023/11/26 09:46:05;;;;;;;3.65;2.20;;;6.80;96.70;;;;;;4847407;29;20052;-65
2023/11/26 09:48:34;;;;;;;5.30;2.60;;;6.90;96.70;;;;;;4848414;29;20395;-65
2023/11/26 09:51:04;;;;;;;4.93;2.90;;;7.00;96.70;;;;;;4841837;29;20364;-66
2023/11/26 09:53:33;;;;;;;4.72;2.95;;;7.10;96.70;;;;;;4846442;29;20053;-65
2023/11/26 09:56:04;;;;;;;5.22;3.17;;;7.30;96.70;;;;;;4846062;29;20045;-63
2023/11/26 09:58:37;;;;;;;4.65;2.80;;;7.30;96.70;;;;;;4838524;29;20128;-64
2023/11/26 10:01:08;;;;;;;5.18;3.60;;;7.40;96.70;;;;;;4838978;29;20124;-60
2023/11/26 10:03:57;;;;;;;6.18;4.30;;;7.50;96.70;;;;;;4846956;29;20539;-60
2023/11/26 10:06:25;;;;;;;6.15;3.40;;;7.50;96.70;;;;;;4849654;29;20132;-60
2023/11/26 10:08:54;;;;;;;4.80;2.95;;;7.50;96.70;;;;;;4851918;29;20046;-61
2023/11/26 10:11:26;;;;;;;4.80;3.03;;;7.60;96.70;;;;;;4847051;29;20109;-61
2023/11/26 10:13:55;;;;;;;6.20;3.20;;;7.80;96.70;;;;;;4839255;29;20046;-63
2023/11/26 10:16:33;;;;;;;9.02;4.95;;;7.90;96.70;;;;;;4847494;29;20513;-62
2023/11/26 10:19:02;;;;;;;5.38;3.78;;;8.10;96.70;;;;;;4856238;29;20048;-62
2023/11/26 10:21:32;;;;;;;6.75;4.03;;;8.10;96.70;;;;;;4855777;29;20076;-61
2023/11/26 10:24:01;;;;;;;7.55;4.55;;;8.20;96.70;;;;;;4847990;29;20816;-61
2023/11/26 10:26:31;;;;;;;8.88;4.55;;;8.30;96.70;;;;;;4846711;29;20101;-61
2023/11/26 10:29:01;;;;;;;5.85;4.05;;;8.30;96.70;;;;;;4845960;29;20053;-60
2023/11/26 10:31:30;;;;;;;5.10;3.50;;;8.40;96.70;;;;;;4849875;29;20042;-61
2023/11/26 10:34:09;;;;;;;6.75;3.50;;;8.60;96.70;;;;;;4850154;29;20050;-61
2023/11/26 10:36:37;;;;;;;5.32;3.78;;;8.80;96.70;;;;;;4837705;29;20134;-63
2023/11/26 10:39:11;;;;;;;6.53;4.10;;;8.80;96.70;;;;;;4851461;29;20041;-66
2023/11/26 10:41:40;;;;;;;7.30;3.75;;;8.90;96.70;;;;;;4837022;29;20108;-65
2023/11/26 10:44:08;;;;;;;4.90;3.30;;;9.00;96.70;;;;;;4843595;29;20054;-66
2023/11/26 10:46:40;;;;;;;7.15;3.97;;;9.00;96.70;;;;;;4845324;29;20054;-66
2023/11/26 10:49:15;;;;;;;5.80;3.40;;;9.00;96.70;;;;;;4845365;29;20628;-65
2023/11/26 10:51:50;;;;;;;5.40;3.05;;;9.00;96.70;;;;;;4848660;29;20061;-66
2023/11/26 10:54:25;;;;;;;5.82;3.10;;;9.10;96.70;;;;;;4843936;29;20064;-66
2023/11/26 10:56:56;;;;;;;5.75;2.92;;;9.20;96.70;;;;;;4854616;29;20045;-66
2023/11/26 10:59:29;;;;;;;6.05;3.40;;;9.20;96.70;;;;;;4840038;29;20054;-66
2023/11/26 11:02:00;;;;;;;4.28;3.03;;;9.40;96.70;;;;;;4841152;29;20053;-66
2023/11/26 11:04:33;;;;;;;5.05;3.60;;;9.50;96.70;;;;;;4842744;29;20050;-66
2023/11/26 11:07:01;;;;;;;7.68;4.03;;;9.60;96.70;;;;;;4838256;29;20054;-65
2023/11/26 11:09:41;;;;;;;6.05;3.97;;;9.70;96.70;;;;;;4845908;29;20530;-66
2023/11/26 11:12:14;;;;;;;6.43;3.42;;;9.80;96.70;;;;;;4844415;29;20053;-66
2023/11/26 11:14:43;;;;;;;7.13;4.55;;;9.80;96.70;;;;;;4843447;29;20045;-66
2023/11/26 11:17:27;;;;;;;7.18;4.97;;;9.90;96.70;;;;;;4840917;29;20105;-66
2023/11/26 11:19:55;;;;;;;7.68;4.82;;;10.00;96.70;;;;;;4840857;29;20102;-66
2023/11/26 11:22:34;;;;;;;6.60;3.95;;;10.10;96.70;;;;;;4843967;29;20052;-66
2023/11/26 11:25:06;;;;;;;5.95;3.92;;;10.30;96.70;;;;;;4841239;29;20418;-66
2023/11/26 11:27:51;;;;;;;5.05;3.13;;;10.30;96.70;;;;;;4837872;29;20054;-66
2023/11/26 11:30:52;;;;;;;5.30;3.38;;;10.30;96.70;;;;;;4837407;29;20074;-66
2023/11/26 11:33:22;;;;;;;5.53;3.45;;;10.40;96.70;;;;;;4843911;29;20084;-66
2023/11/26 11:35:51;;;;;;;5.43;3.55;;;10.60;96.70;;;;;;4845709;29;21488;-66
2023/11/26 11:38:20;;;;;;;5.95;3.70;;;10.70;96.70;;;;;;4841101;29;20051;-66
2023/11/26 11:40:59;;;;;;;5.68;3.85;;;10.60;96.70;;;;;;4841321;29;20125;-66
2023/11/26 11:43:27;;;;;;;6.30;4.35;;;10.70;96.70;;;;;;4848514;29;20559;-67
2023/11/26 11:45:55;;;;;;;6.55;3.65;;;10.80;96.70;;;;;;4846041;29;20078;-66
2023/11/26 11:48:55;;;;;;;7.30;3.58;;;10.90;96.70;;;;;;4839111;29;20062;-66
2023/11/26 11:51:34;;;;;;;5.18;3.30;;;11.10;96.70;;;;;;4838265;29;20470;-66
2023/11/26 11:54:30;;;;;;;5.63;3.47;;;11.30;96.70;;;;;;4853763;29;20122;-66
2023/11/26 11:56:59;;;;;;;5.80;3.60;;;11.50;96.70;;;;;;4807657;29;20050;-66
2023/11/26 11:59:28;;;;;;;6.55;3.72;;;11.60;96.70;;;;;;4837423;29;20511;-67
2023/11/26 12:01:58;;;;;;;6.55;3.70;;;11.70;96.70;;;;;;4837835;29;20939;-66
2023/11/26 12:04:42;;;;;;;6.50;4.22;;;11.70;96.70;;;;;;4842030;29;20561;-66
2023/11/26 12:07:11;;;;;;;6.80;4.82;;;11.70;96.70;;;;;;4846934;29;20086;-66
2023/11/26 12:09:40;;;;;;;5.97;3.78;;;11.80;96.70;;;;;;4845812;29;20066;-66
2023/11/26 12:12:09;;;;;;;6.03;3.80;;;11.90;96.70;;;;;;4839368;29;20056;-62
2023/11/26 12:14:37;;;;;;;5.05;3.30;;;12.00;96.70;;;;;;4848039;29;20807;-67
2023/11/26 12:17:06;;;;;;;6.72;4.13;;;12.10;96.70;;;;;;4845727;29;20050;-66
2023/11/26 12:19:41;;;;;;;7.53;3.50;;;12.20;96.70;;;;;;4845507;29;20049;-66
2023/11/26 12:22:12;;;;;;;4.82;3.58;;;12.40;96.70;;;;;;4837716;29;20536;-66
2023/11/26 12:24:40;;;;;;;5.90;3.58;;;12.40;96.70;;;;;;4844127;29;20085;-67
2023/11/26 12:27:22;;;;;;;7.25;3.60;;;12.50;96.70;;;;;;4838504;29;20117;-66
2023/11/26 12:29:51;;;;;;;5.82;3.92;;;12.70;96.70;;;;;;4839119;29;20058;-66
2023/11/26 12:32:25;;;;;;;7.25;4.60;;;12.80;96.70;;;;;;4836415;29;20521;-67
2023/11/26 12:35:00;;;;;;;5.97;4.20;;;12.90;96.70;;;;;;4838288;29;20575;-67
2023/11/26 12:37:29;;;;;;;6.40;4.72;;;13.00;96.70;;;;;;4842407;29;20037;-67
2023/11/26 12:39:57;;;;;;;6.93;4.38;;;13.20;96.70;;;;;;4839262;29;20082;-67
2023/11/26 12:42:26;;;;;;;6.13;4.50;;;13.20;96.70;;;;;;4837181;29;20064;-67
2023/11/26 12:44:54;;;;;;;7.32;4.38;;;13.10;96.70;;;;;;4842867;29;20042;-67
2023/11/26 12:47:23;;;;;;;6.55;4.50;;;13.20;96.70;;;;;;4843198;29;20137;-67
2023/11/26 12:50:00;;;;;;;6.55;4.30;;;13.20;96.70;;;;;;4841991;29;20053;-67
2023/11/26 12:52:32;;;;;;;6.97;4.32;;;13.30;96.70;;;;;;4854629;29;20057;-67
2023/11/26 12:55:03;;;;;;;7.75;4.63;;;13.40;96.70;;;;;;4846490;29;20045;-67
2023/11/26 12:57:38;;;;;;;6.90;3.80;;;13.40;96.70;;;;;;4837833;29;20260;-67
2023/11/26 13:00:11;;;;;;;7.95;4.25;;;13.50;96.70;;;;;;4837137;29;20050;-67
2023/11/26 13:02:39;;;;;;;8.10;4.78;;;13.50;96.70;;;;;;4843811;29;20502;-67
2023/11/26 13:05:29;;;;;;;8.38;4.55;;;13.60;96.70;;;;;;4855103;29;20041;-67
2023/11/26 13:07:59;;;;;;;5.45;3.63;;;13.50;96.70;;;;;;4840770;29;20058;-67
2023/11/26 13:10:45;;;;;;;6.38;3.95;;;13.50;96.70;;;;;;4846272;29;20114;-67
2023/11/26 13:13:21;;;;;;;6.80;4.30;;;13.40;96.70;;;;;;4830993;29;20037;-67
2023/11/26 13:15:50;;;;;;;6.13;3.95;;;13.30;96.70;;;;;;4846123;29;20070;-67